Новый Сентег

Карта отелей и гостиниц, располагающихся рядом с аэропортом Новый Сентег :

Новый Сентег Удмуртская республика 56° 56' 19.6188" N, 52° 51' 0.9" E
Код аэродрома ИКАО
ZF41
Код аэродрома RU
ЗФ41
Координаты
N56.93878° E052.85025°
Превышение над уровнем моря
140
Основная полоса
03/21
Курс магнитный
029,9/209,9
Длина основной ВПП
652
Ширина основной ВПП
30
Покрытие основной ВПП
Нетвёрдое (грунт)
Освещение ВПП
Нет
Тип: 
Аэродром
Класс аэродрома: 
Принадлежность: 
АОН
Статус: 
Недействующий
Сайт: 
E-mail аэродрома: 
Страна: 
Россия
Регион: 
Удмуртская республика
Город: 
Дополнительная информация: 
Оператор: нет данных.


Найти трансфер

С помощью этой формы Вы можете найти трансфер из аэропорта Новый Сентег в город, аэропорт или вокзал:

Погода в аэропортах:

Авиационная погода в Киркенесе

Регион: 
Погода METAR: 
ENKR 212250Z AUTO 15005KT 9999 -RA ///023/// 05/03 Q1013 RMK WIND 731FT 16013KT
Время наблюдения
2022-05-21T22:50:00Z
Температура C
5.0
Точка росы
3.0
Направление ветра
150
Скорость ветра (узлы)
5
Метео видимость
6.21
Облачность
Нижняя граница облачности (футы)
Явления погоды
-RA
Условия полета
-RA - слабый дождь;

Авиационная погода в Платове

Регион: 
Погода METAR: 
URRP 212300Z 26010MPS 9999 -SHRA SCT///CB 14/10 Q1005 R23/CLRD70 TEMPO VRB17G22MPS 3000 -TSRAGR SCT003 SCT020CB RMK QFE746/0995
Время наблюдения
2022-05-21T23:00:00Z
Температура C
14.0
Точка росы
10.0
Направление ветра
260
Скорость ветра (узлы)
19
Метео видимость
6.21
Облачность
Нижняя граница облачности (футы)
Явления погоды
-SHRA
Условия полета
Аэропорт подробнее: 
-SHRA - слабый ливневой дождь;

Авиационная погода в Ивало

Регион: 
Погода METAR: 
EFIV 212250Z AUTO 11003KT 9999 -RA FEW016 BKN035 07/06 Q1011
Время наблюдения
2022-05-21T22:50:00Z
Температура C
7.0
Точка росы
6.0
Направление ветра
110
Скорость ветра (узлы)
3
Метео видимость
6.21
Облачность
FEW
BKN
Нижняя граница облачности (футы)
1600
3500
Явления погоды
-RA
Условия полета
VFR
FEW – незначительная облачность; BKN – значительная (рассеянная, разорванная) облачность;
-RA - слабый дождь;

Авиационная погода в Храброво

Регион: 
Погода METAR: 
UMKK 212300Z 29009MPS 9000 -RA BKN005 OVC017 09/09 Q1007 R24/290095 NOSIG RMK QBB150 OBST OBSC QFE754/1005
Время наблюдения
2022-05-21T23:00:00Z
Температура C
9.0
Точка росы
9.0
Направление ветра
290
Скорость ветра (узлы)
17
Метео видимость
5.59
Облачность
BKN
OVC
Нижняя граница облачности (футы)
500
1700
Явления погоды
-RA
Условия полета
IFR
Аэропорт подробнее: 
BKN – значительная (рассеянная, разорванная) облачность; OVC – сплошная облачность;
-RA - слабый дождь;